Terminal Aerodrome Forecast
Issued by NWS

Home | Current Version | Previous Version | Text Only | Print | Product List | Glossary On
Versions: 1 2 3 4 5 6 7 8 9 10 11 12
561
FTUS46 KHNX 301726
TAFVIS
TAF
KVIS 301726Z 3018/3118 VRB04KT P6SM SKC
     FM302300 30007KT P6SM SKC
     FM310900 VRB03KT P6SM SKC
      TEMPO 3114/3118 14006KT=

USA.gov is the U.S. government's official web portal to all federal, state and local government web resources and services.